createdAt,value
2023-02-11T00:00:21.947Z,2.96
2023-02-11T00:02:48.444Z,2.88
2023-02-11T00:05:15.639Z,2.72
2023-02-11T00:07:42.200Z,2.69
2023-02-11T00:10:09.356Z,2.67
2023-02-11T00:12:37.263Z,2.65
2023-02-11T00:15:05.207Z,2.71
2023-02-11T00:17:32.774Z,2.56
2023-02-11T00:19:59.347Z,2.55
2023-02-11T00:22:25.957Z,2.47
2023-02-11T00:24:52.548Z,2.60
2023-02-11T00:27:19.128Z,2.65
2023-02-11T00:29:45.647Z,2.50
2023-02-11T00:32:12.278Z,2.42
2023-02-11T00:34:38.949Z,2.29
2023-02-11T00:37:06.222Z,2.53
2023-02-11T00:39:32.894Z,2.49
2023-02-11T00:41:59.658Z,2.38
2023-02-11T00:44:27.200Z,2.28
2023-02-11T00:46:53.676Z,2.34
2023-02-11T00:49:20.217Z,2.33
2023-02-11T00:51:46.824Z,2.30
2023-02-11T00:54:13.360Z,2.19
2023-02-11T00:56:39.964Z,2.36
2023-02-11T00:59:06.738Z,2.36
2023-02-11T01:01:33.414Z,2.30
2023-02-11T01:04:00.150Z,2.20
2023-02-11T01:06:27.293Z,2.18
2023-02-11T01:08:53.807Z,2.24
2023-02-11T01:11:21.772Z,2.41
2023-02-11T01:13:49.589Z,2.30
2023-02-11T01:16:16.944Z,2.05
2023-02-11T01:18:44.368Z,2.04
2023-02-11T01:21:11.638Z,2.09
2023-02-11T01:23:38.226Z,1.96
2023-02-11T01:26:05.768Z,1.97
2023-02-11T01:28:32.935Z,2.04
2023-02-11T01:31:00.984Z,1.94
2023-02-11T01:33:27.615Z,1.88
2023-02-11T01:35:54.404Z,2.23
2023-02-11T01:38:24.145Z,2.06
2023-02-11T01:40:53.269Z,1.81
2023-02-11T01:43:20.393Z,1.71
2023-02-11T01:45:49.852Z,1.60
2023-02-11T01:48:24.703Z,1.58
2023-02-11T01:50:55.142Z,1.58
2023-02-11T01:53:40.744Z,1.57
2023-02-11T01:56:26.926Z,1.60
2023-02-11T01:59:00.657Z,1.49
2023-02-11T02:01:30.147Z,1.46
2023-02-11T02:04:01.810Z,1.49
2023-02-11T02:06:37.373Z,1.43
2023-02-11T02:09:09.563Z,1.42
2023-02-11T02:11:36.597Z,1.43
2023-02-11T02:14:03.766Z,1.36
2023-02-11T02:16:35.043Z,1.29
2023-02-11T02:19:39.240Z,1.23
2023-02-11T02:22:45.802Z,1.15
2023-02-11T02:25:28.795Z,1.11
2023-02-11T02:28:25.974Z,1.04
2023-02-11T02:31:20.396Z,1.05
2023-02-11T02:34:03.419Z,1.12
2023-02-11T02:36:50.662Z,1.16
2023-02-11T02:39:33.805Z,1.22
2023-02-11T02:42:01.932Z,1.26
2023-02-11T02:44:29.775Z,1.27
2023-02-11T02:46:56.717Z,1.27
2023-02-11T02:49:23.283Z,1.48
2023-02-11T02:52:13.305Z,1.48
2023-02-11T02:54:57.312Z,1.49
2023-02-11T02:57:40.969Z,1.53
2023-02-11T03:00:44.297Z,1.40
2023-02-11T03:03:38.030Z,1.57
2023-02-11T03:06:21.547Z,1.42
2023-02-11T03:08:55.022Z,1.44
2023-02-11T03:11:22.200Z,1.34
2023-02-11T03:13:50.867Z,1.26
2023-02-11T03:16:22.135Z,1.08
2023-02-11T03:18:53.185Z,1.15
2023-02-11T03:21:20.966Z,1.06
2023-02-11T03:23:55.755Z,1.00
2023-02-11T03:26:36.002Z,1.16
2023-02-11T03:29:24.184Z,1.19
2023-02-11T03:32:07.513Z,1.17
2023-02-11T03:34:53.523Z,0.98
2023-02-11T03:37:32.040Z,0.91
2023-02-11T03:40:06.585Z,0.88
2023-02-11T03:42:39.850Z,0.88
2023-02-11T03:45:10.693Z,0.94
2023-02-11T03:47:40.758Z,0.73
2023-02-11T03:50:10.802Z,0.67
2023-02-11T03:52:38.497Z,0.74
2023-02-11T03:55:12.959Z,0.78
2023-02-11T03:57:39.694Z,0.79
2023-02-11T04:00:07.406Z,1.08
2023-02-11T04:02:36.961Z,1.17
2023-02-11T04:05:05.171Z,1.08
2023-02-11T04:07:31.670Z,1.03
2023-02-11T04:09:58.319Z,0.94
2023-02-11T04:12:24.893Z,1.05
2023-02-11T04:14:51.547Z,1.13
2023-02-11T04:17:18.669Z,0.79
2023-02-11T04:19:45.165Z,0.60
2023-02-11T04:22:11.667Z,0.61
2023-02-11T04:24:38.867Z,0.52
2023-02-11T04:27:05.451Z,0.48
2023-02-11T04:29:32.140Z,0.47
2023-02-11T04:31:58.672Z,0.51
2023-02-11T04:34:25.269Z,0.53
2023-02-11T04:36:51.885Z,0.47
2023-02-11T04:39:19.084Z,0.46
2023-02-11T04:41:45.831Z,0.35
2023-02-11T04:44:12.492Z,0.34
2023-02-11T04:46:39.171Z,0.25
2023-02-11T04:49:05.849Z,0.25
2023-02-11T04:51:32.595Z,0.27
2023-02-11T04:53:59.279Z,0.29
2023-02-11T04:56:25.829Z,0.29
2023-02-11T04:58:52.551Z,0.25
2023-02-11T05:01:19.224Z,0.18
2023-02-11T05:03:45.896Z,0.14
2023-02-11T05:06:12.539Z,0.10
2023-02-11T05:08:39.838Z,0.17
2023-02-11T05:11:07.570Z,0.20
2023-02-11T05:13:34.388Z,0.19
2023-02-11T05:16:01.006Z,0.13
2023-02-11T05:18:27.523Z,0.18
2023-02-11T05:20:54.108Z,0.05
2023-02-11T05:23:20.681Z,-0.04
2023-02-11T05:25:47.159Z,0.02
2023-02-11T05:28:13.830Z,-0.10
2023-02-11T05:30:40.909Z,0.09
2023-02-11T05:33:07.505Z,0.18
2023-02-11T05:35:34.064Z,0.32
2023-02-11T05:38:00.581Z,0.31
2023-02-11T05:40:27.193Z,0.20
2023-02-11T05:42:53.697Z,0.07
2023-02-11T05:45:20.269Z,-0.01
2023-02-11T05:47:46.798Z,0.06
2023-02-11T05:50:13.546Z,0.02
2023-02-11T05:52:40.109Z,-0.05
2023-02-11T05:55:06.984Z,-0.02
2023-02-11T05:57:33.549Z,-0.09
2023-02-11T06:00:00.104Z,-0.08
2023-02-11T06:02:26.750Z,-0.04
2023-02-11T06:04:53.407Z,-0.08
2023-02-11T06:07:20.038Z,-0.06
2023-02-11T06:09:46.555Z,-0.11
2023-02-11T06:12:13.450Z,-0.12
2023-02-11T06:14:40.062Z,-0.09
2023-02-11T06:17:06.816Z,0.06
2023-02-11T06:19:33.500Z,0.32
2023-02-11T06:22:00.082Z,0.30
2023-02-11T06:24:50.976Z,0.20
2023-02-11T06:27:13.515Z,0.31
2023-02-11T06:29:40.034Z,0.21
2023-02-11T06:32:08.611Z,0.25
2023-02-11T06:34:38.546Z,0.17
2023-02-11T06:37:05.680Z,0.16
2023-02-11T06:39:32.488Z,0.23
2023-02-11T06:41:59.023Z,0.32
2023-02-11T06:44:25.708Z,0.42
2023-02-11T06:46:52.253Z,0.18
2023-02-11T06:49:18.838Z,0.15
2023-02-11T06:51:45.757Z,0.08
2023-02-11T06:54:12.988Z,-0.04
2023-02-11T06:56:40.576Z,0.01
2023-02-11T06:59:07.357Z,0.11
2023-02-11T07:01:34.343Z,0.17
2023-02-11T07:04:00.916Z,0.02
2023-02-11T07:06:28.022Z,-0.08
2023-02-11T07:08:55.964Z,0.11
2023-02-11T07:11:25.297Z,0.22
2023-02-11T07:13:54.611Z,0.05
2023-02-11T07:16:21.602Z,-0.08
2023-02-11T07:18:49.157Z,-0.20
2023-02-11T07:21:20.003Z,-0.14
2023-02-11T07:23:48.326Z,-0.16
2023-02-11T07:26:20.131Z,-0.18
2023-02-11T07:28:47.027Z,-0.14
2023-02-11T07:31:20.238Z,-0.14
2023-02-11T07:33:47.574Z,-0.13
2023-02-11T07:36:16.156Z,-0.14
2023-02-11T07:38:43.291Z,-0.16
2023-02-11T07:41:13.459Z,-0.20
2023-02-11T07:43:40.890Z,-0.11
2023-02-11T07:46:10.080Z,-0.13
2023-02-11T07:48:36.732Z,-0.17
2023-02-11T07:51:15.393Z,-0.17
2023-02-11T07:53:42.550Z,-0.17
2023-02-11T07:56:10.859Z,-0.06
2023-02-11T07:58:37.973Z,0.29
2023-02-11T08:01:07.344Z,0.43
2023-02-11T08:03:35.368Z,0.29
2023-02-11T08:06:10.702Z,0.35
2023-02-11T08:08:37.410Z,0.37
2023-02-11T08:11:15.652Z,0.45
2023-02-11T08:13:43.193Z,0.38
2023-02-11T08:16:18.081Z,0.31
2023-02-11T08:18:44.623Z,0.31
2023-02-11T08:21:11.196Z,-0.06
2023-02-11T08:23:39.553Z,-0.30
2023-02-11T08:26:09.868Z,-0.14
2023-02-11T08:28:38.802Z,-0.13
2023-02-11T08:31:07.155Z,-0.16
2023-02-11T08:33:34.753Z,-0.09
2023-02-11T08:36:02.265Z,0.02
2023-02-11T08:38:28.877Z,0.27
2023-02-11T08:40:55.448Z,0.48
2023-02-11T08:43:23.617Z,0.41
2023-02-11T08:45:50.584Z,0.58
2023-02-11T08:48:17.242Z,0.66
2023-02-11T08:50:43.755Z,0.58
2023-02-11T08:53:10.395Z,0.64
2023-02-11T08:55:36.995Z,0.79
2023-02-11T08:58:03.637Z,0.80
2023-02-11T09:00:30.714Z,0.82
2023-02-11T09:02:57.391Z,0.93
2023-02-11T09:05:24.100Z,0.98
2023-02-11T09:07:50.744Z,1.03
2023-02-11T09:10:17.329Z,1.08
2023-02-11T09:12:43.820Z,1.34
2023-02-11T09:15:10.362Z,1.39
2023-02-11T09:17:36.866Z,1.52
2023-02-11T09:20:03.993Z,1.59
2023-02-11T09:22:30.508Z,1.67
2023-02-11T09:24:57.100Z,1.76
2023-02-11T09:27:23.844Z,1.84
2023-02-11T09:29:50.524Z,1.90
2023-02-11T09:32:17.191Z,1.91
2023-02-11T09:34:43.804Z,2.02
2023-02-11T09:37:10.374Z,2.01
2023-02-11T09:39:36.844Z,2.05
2023-02-11T09:42:23.553Z,2.11
2023-02-11T09:44:50.460Z,2.19
2023-02-11T09:47:28.548Z,2.23
2023-02-11T09:50:02.547Z,2.36
2023-02-11T09:52:47.457Z,2.48
2023-02-11T09:55:25.583Z,2.57
2023-02-11T09:57:52.294Z,2.56
2023-02-11T10:00:27.807Z,2.55
2023-02-11T10:03:38.038Z,2.63
2023-02-11T10:06:13.172Z,2.64
2023-02-11T10:09:13.860Z,2.70
2023-02-11T10:11:46.403Z,2.79
2023-02-11T10:14:43.249Z,2.84
2023-02-11T10:17:37.764Z,2.95
2023-02-11T10:20:04.264Z,2.93
2023-02-11T10:22:41.393Z,2.92
2023-02-11T10:25:24.792Z,3.04
2023-02-11T10:27:53.532Z,3.14
2023-02-11T10:30:34.145Z,3.21
2023-02-11T10:33:18.659Z,3.38
2023-02-11T10:35:45.760Z,3.35
2023-02-11T10:38:12.456Z,3.49
2023-02-11T10:40:40.062Z,3.53
2023-02-11T10:43:13.420Z,3.61
2023-02-11T10:45:47.021Z,3.78
2023-02-11T10:48:36.503Z,3.84
2023-02-11T10:51:17.462Z,3.90
2023-02-11T10:53:45.410Z,3.98
2023-02-11T10:56:22.163Z,4.05
2023-02-11T10:59:05.420Z,4.24
2023-02-11T11:01:43.661Z,4.49
2023-02-11T11:04:27.103Z,4.66
2023-02-11T11:06:53.634Z,4.77
2023-02-11T11:09:31.211Z,4.72
2023-02-11T11:11:58.146Z,4.83
2023-02-11T11:14:29.461Z,4.97
2023-02-11T11:16:56.174Z,5.07
2023-02-11T11:19:24.770Z,5.23
2023-02-11T11:21:54.100Z,5.39
2023-02-11T11:24:44.995Z,5.39
2023-02-11T11:27:19.644Z,5.53
2023-02-11T11:29:52.062Z,5.68
2023-02-11T11:32:32.495Z,5.82
2023-02-11T11:35:03.630Z,6.15
2023-02-11T11:37:34.562Z,6.27
2023-02-11T11:40:16.368Z,6.24
2023-02-11T11:42:43.728Z,6.32
2023-02-11T11:45:16.415Z,6.35
2023-02-11T11:48:06.245Z,6.30
2023-02-11T11:50:45.219Z,6.63
2023-02-11T11:53:20.533Z,6.89
2023-02-11T11:56:09.695Z,6.94
2023-02-11T11:58:36.230Z,6.98
2023-02-11T12:01:40.382Z,7.00
2023-02-11T12:04:18.734Z,7.06
2023-02-11T12:07:08.401Z,7.34
2023-02-11T12:09:50.051Z,7.47
2023-02-11T12:12:41.315Z,7.59
2023-02-11T12:15:36.615Z,7.60
2023-02-11T12:18:33.152Z,7.65
2023-02-11T12:21:30.241Z,7.59
2023-02-11T12:24:12.046Z,7.84
2023-02-11T12:26:51.782Z,7.92
2023-02-11T12:29:37.438Z,8.12
2023-02-11T12:32:19.833Z,8.02
2023-02-11T12:35:40.201Z,7.96
2023-02-11T12:38:26.136Z,7.99
2023-02-11T12:40:55.672Z,8.07
2023-02-11T12:43:26.545Z,8.27
2023-02-11T12:46:11.578Z,8.45
2023-02-11T12:48:38.177Z,8.42
2023-02-11T12:51:14.482Z,8.53
2023-02-11T12:53:43.954Z,8.61
2023-02-11T12:56:31.020Z,8.76
2023-02-11T12:59:00.682Z,8.74
2023-02-11T13:01:32.524Z,8.88
2023-02-11T13:04:30.778Z,8.89
2023-02-11T13:07:02.371Z,8.99
2023-02-11T13:09:36.780Z,8.98
2023-02-11T13:12:25.426Z,8.92
2023-02-11T13:14:57.015Z,9.06
2023-02-11T13:17:48.373Z,9.23
2023-02-11T13:20:46.708Z,9.31
2023-02-11T13:23:15.953Z,9.33
2023-02-11T13:25:46.425Z,9.39
2023-02-11T13:28:32.389Z,9.46
2023-02-11T13:31:03.982Z,9.25
2023-02-11T13:33:43.061Z,9.30
2023-02-11T13:36:09.473Z,9.34
2023-02-11T13:38:37.732Z,9.50
2023-02-11T13:41:06.613Z,9.53
2023-02-11T13:43:36.441Z,9.39
2023-02-11T13:46:07.089Z,9.45
2023-02-11T13:48:38.044Z,9.40
2023-02-11T13:51:10.650Z,9.49
2023-02-11T13:53:50.408Z,9.54
2023-02-11T13:56:32.394Z,9.56
2023-02-11T13:59:02.306Z,9.65
2023-02-11T14:02:07.665Z,9.46
2023-02-11T14:04:52.926Z,9.43
2023-02-11T14:07:48.129Z,9.60
2023-02-11T14:10:42.626Z,9.70
2023-02-11T14:13:29.278Z,9.71
2023-02-11T14:16:15.849Z,9.70
2023-02-11T14:18:52.613Z,9.79
2023-02-11T14:21:30.540Z,9.73
2023-02-11T14:24:04.829Z,9.77
2023-02-11T14:26:56.153Z,9.75
2023-02-11T14:29:37.520Z,9.69
2023-02-11T14:32:25.202Z,9.75
2023-02-11T14:34:51.640Z,9.75
2023-02-11T14:37:22.568Z,9.88
2023-02-11T14:40:18.696Z,9.80
2023-02-11T14:42:45.543Z,9.78
2023-02-11T14:45:20.151Z,9.87
2023-02-11T14:47:53.618Z,9.97
2023-02-11T14:50:27.500Z,9.92
2023-02-11T14:52:55.808Z,9.96
2023-02-11T14:55:35.686Z,9.93
2023-02-11T14:58:17.882Z,9.94
2023-02-11T15:01:22.375Z,9.89
2023-02-11T15:03:50.033Z,9.88
2023-02-11T15:06:23.225Z,9.80
2023-02-11T15:09:01.014Z,9.78
2023-02-11T15:11:32.169Z,9.76
2023-02-11T15:14:07.307Z,9.87
2023-02-11T15:16:35.090Z,9.90
2023-02-11T15:19:05.274Z,9.96
2023-02-11T15:21:35.696Z,10.02
2023-02-11T15:24:30.879Z,10.01
2023-02-11T15:26:58.279Z,9.95
2023-02-11T15:29:26.861Z,9.93
2023-02-11T15:32:13.657Z,9.90
2023-02-11T15:34:40.506Z,9.99
2023-02-11T15:37:07.909Z,9.90
2023-02-11T15:39:38.462Z,9.83
2023-02-11T15:42:35.837Z,9.76
2023-02-11T15:45:16.216Z,9.84
2023-02-11T15:47:50.798Z,9.91
2023-02-11T15:50:37.177Z,9.86
2023-02-11T15:53:17.033Z,9.78
2023-02-11T15:55:44.150Z,9.79
2023-02-11T15:58:11.213Z,9.88
2023-02-11T16:00:47.098Z,9.80
2023-02-11T16:03:32.353Z,9.82
2023-02-11T16:06:35.423Z,9.82
2023-02-11T16:09:13.532Z,9.72
2023-02-11T16:11:46.242Z,9.73
2023-02-11T16:14:27.995Z,9.69
2023-02-11T16:16:58.734Z,9.67
2023-02-11T16:19:27.196Z,9.64
2023-02-11T16:21:55.326Z,9.56
2023-02-11T16:24:28.967Z,9.51
2023-02-11T16:27:01.143Z,9.44
2023-02-11T16:29:33.105Z,9.33
2023-02-11T16:32:16.520Z,9.42
2023-02-11T16:34:43.107Z,9.51
2023-02-11T16:37:09.896Z,9.38
2023-02-11T16:39:36.505Z,9.44
2023-02-11T16:42:05.742Z,9.43
2023-02-11T16:44:34.399Z,9.41
2023-02-11T16:47:03.277Z,9.31
2023-02-11T16:49:35.949Z,9.25
2023-02-11T16:52:07.725Z,9.20
2023-02-11T16:54:34.812Z,9.15
2023-02-11T16:57:02.595Z,9.03
2023-02-11T16:59:29.202Z,8.94
2023-02-11T17:01:57.064Z,8.83
2023-02-11T17:04:29.484Z,8.75
2023-02-11T17:06:58.373Z,8.83
2023-02-11T17:09:30.297Z,8.95
2023-02-11T17:11:57.580Z,8.77
2023-02-11T17:14:24.174Z,8.77
2023-02-11T17:16:50.717Z,8.66
2023-02-11T17:19:20.902Z,8.57
2023-02-11T17:21:49.837Z,8.45
2023-02-11T17:24:17.125Z,8.33
2023-02-11T17:26:45.015Z,8.44
2023-02-11T17:29:14.724Z,8.30
2023-02-11T17:31:42.001Z,8.18
2023-02-11T17:34:08.816Z,8.07
2023-02-11T17:36:35.300Z,8.13
2023-02-11T17:39:03.264Z,8.16
2023-02-11T17:41:31.432Z,8.19
2023-02-11T17:43:58.890Z,8.15
2023-02-11T17:46:25.501Z,7.97
2023-02-11T17:48:53.217Z,7.81
2023-02-11T17:51:27.028Z,7.81
2023-02-11T17:53:53.941Z,7.75
2023-02-11T17:56:21.400Z,7.67
2023-02-11T17:58:47.869Z,7.57
2023-02-11T18:01:14.702Z,7.46
2023-02-11T18:03:41.370Z,7.50
2023-02-11T18:06:08.170Z,7.44
2023-02-11T18:08:35.748Z,7.54
2023-02-11T18:11:02.882Z,7.51
2023-02-11T18:13:29.476Z,7.30
2023-02-11T18:16:01.513Z,7.32
2023-02-11T18:18:28.007Z,7.38
2023-02-11T18:21:03.905Z,7.32
2023-02-11T18:23:30.775Z,7.19
2023-02-11T18:25:57.324Z,7.08
2023-02-11T18:28:23.910Z,6.98
2023-02-11T18:30:58.683Z,6.95
2023-02-11T18:33:25.361Z,6.96
2023-02-11T18:35:52.965Z,6.92
2023-02-11T18:38:19.782Z,6.87
2023-02-11T18:40:47.527Z,6.89
2023-02-11T18:43:14.406Z,6.91
2023-02-11T18:45:45.312Z,6.85
2023-02-11T18:48:12.474Z,6.84
2023-02-11T18:50:44.545Z,6.80
2023-02-11T18:53:15.980Z,6.71
2023-02-11T18:55:44.474Z,6.72
2023-02-11T18:58:11.392Z,6.65
2023-02-11T19:00:41.443Z,6.58
2023-02-11T19:03:08.385Z,6.59
2023-02-11T19:05:48.799Z,6.53
2023-02-11T19:08:16.998Z,6.50
2023-02-11T19:10:46.373Z,6.43
2023-02-11T19:13:13.990Z,6.33
2023-02-11T19:15:42.625Z,6.26
2023-02-11T19:18:09.509Z,6.28
2023-02-11T19:20:39.519Z,6.26
2023-02-11T19:23:06.039Z,6.36
2023-02-11T19:25:32.613Z,6.25
2023-02-11T19:28:00.369Z,6.20
2023-02-11T19:30:27.301Z,6.22
2023-02-11T19:32:57.011Z,6.28
2023-02-11T19:35:24.359Z,6.22
2023-02-11T19:37:50.862Z,6.17
2023-02-11T19:40:17.679Z,6.10
2023-02-11T19:42:44.344Z,6.06
2023-02-11T19:45:10.913Z,6.04
2023-02-11T19:47:37.524Z,5.97
2023-02-11T19:50:05.419Z,5.98
2023-02-11T19:52:32.250Z,5.92
2023-02-11T19:54:59.064Z,5.90
2023-02-11T19:57:25.645Z,5.88
2023-02-11T19:59:54.812Z,5.98
2023-02-11T20:02:21.351Z,6.04
2023-02-11T20:04:48.090Z,5.98
2023-02-11T20:07:14.735Z,5.99
2023-02-11T20:09:42.544Z,5.95
2023-02-11T20:12:09.789Z,5.94
2023-02-11T20:14:36.377Z,5.89
2023-02-11T20:17:02.936Z,5.83
2023-02-11T20:19:30.671Z,5.93
2023-02-11T20:21:57.556Z,5.94
2023-02-11T20:24:25.611Z,5.91
2023-02-11T20:26:55.613Z,5.80
2023-02-11T20:29:24.501Z,5.76
2023-02-11T20:31:51.413Z,5.71
2023-02-11T20:34:18.724Z,5.67
2023-02-11T20:36:52.303Z,5.60
2023-02-11T20:39:21.831Z,5.55
2023-02-11T20:41:49.378Z,5.57
2023-02-11T20:44:16.291Z,5.55
2023-02-11T20:46:46.577Z,5.52
2023-02-11T20:49:15.394Z,5.47
2023-02-11T20:51:42.559Z,5.44
2023-02-11T20:54:13.154Z,5.42
2023-02-11T20:56:39.849Z,5.43
2023-02-11T20:59:06.496Z,5.44
2023-02-11T21:01:40.277Z,5.43
2023-02-11T21:04:10.945Z,5.38
2023-02-11T21:06:41.300Z,5.40
2023-02-11T21:09:11.363Z,5.41
2023-02-11T21:11:38.013Z,5.41
2023-02-11T21:14:04.649Z,5.36
2023-02-11T21:16:32.480Z,5.43
2023-02-11T21:19:00.627Z,5.38
2023-02-11T21:21:27.219Z,5.35
2023-02-11T21:23:53.791Z,5.32
2023-02-11T21:26:20.328Z,5.38
2023-02-11T21:28:48.758Z,5.39
2023-02-11T21:31:22.426Z,5.32
2023-02-11T21:33:50.344Z,5.36
2023-02-11T21:36:17.619Z,5.36
2023-02-11T21:38:44.379Z,5.29
2023-02-11T21:41:11.771Z,5.31
2023-02-11T21:43:38.756Z,5.24
2023-02-11T21:46:11.265Z,5.19
2023-02-11T21:48:38.173Z,5.18
2023-02-11T21:51:07.066Z,5.13
2023-02-11T21:53:34.709Z,5.12
2023-02-11T21:56:05.937Z,5.13
2023-02-11T21:58:32.704Z,5.17
2023-02-11T22:00:59.507Z,5.18
2023-02-11T22:03:26.028Z,5.12
2023-02-11T22:05:52.812Z,5.11
2023-02-11T22:08:20.320Z,5.07
2023-02-11T22:10:46.965Z,5.06
2023-02-11T22:13:13.443Z,5.03
2023-02-11T22:15:39.917Z,5.04
2023-02-11T22:18:06.388Z,5.00
2023-02-11T22:20:32.919Z,5.01
2023-02-11T22:22:59.567Z,5.05
2023-02-11T22:25:26.071Z,5.07
2023-02-11T22:27:52.663Z,5.17
2023-02-11T22:30:19.331Z,5.14
2023-02-11T22:32:47.402Z,5.10
2023-02-11T22:35:13.964Z,5.12
2023-02-11T22:37:40.530Z,5.05
2023-02-11T22:40:07.747Z,5.04
2023-02-11T22:42:34.215Z,5.04
2023-02-11T22:45:00.785Z,5.01
2023-02-11T22:47:27.618Z,4.95
2023-02-11T22:49:54.129Z,4.93
2023-02-11T22:52:22.414Z,4.95
2023-02-11T22:54:51.094Z,4.95
2023-02-11T22:57:17.864Z,4.92
2023-02-11T22:59:44.484Z,4.88
2023-02-11T23:02:11.178Z,4.85
2023-02-11T23:04:38.014Z,4.85
2023-02-11T23:07:04.600Z,4.83
2023-02-11T23:09:31.207Z,4.84
2023-02-11T23:11:57.936Z,4.75
2023-02-11T23:14:24.527Z,4.77
2023-02-11T23:16:51.578Z,4.73
2023-02-11T23:19:18.788Z,4.75
2023-02-11T23:21:45.528Z,4.71
2023-02-11T23:24:14.800Z,4.74
2023-02-11T23:26:43.071Z,4.67
2023-02-11T23:29:10.480Z,4.65
2023-02-11T23:31:40.383Z,4.62
2023-02-11T23:34:08.270Z,4.58
2023-02-11T23:36:34.935Z,4.53
2023-02-11T23:39:01.791Z,4.50
2023-02-11T23:41:28.736Z,4.50
2023-02-11T23:43:57.926Z,4.51
2023-02-11T23:46:26.973Z,4.50
2023-02-11T23:48:53.764Z,4.46
2023-02-11T23:51:21.125Z,4.42
2023-02-11T23:53:49.398Z,4.48
2023-02-11T23:56:22.795Z,4.41
2023-02-11T23:58:51.395Z,4.40
